Time;durP1;ratioP1;P1;durP2;ratioP2;P2;SDS_P1;SDS_P2;PMS_P1;PMS_P2;Temp;Humidity;BMP_temperature;BMP_pressure;BME280_temperature;BME280_humidity;BME280_pressure;Samples;Min_cycle;Max_cycle;Signal;HPM_P1;HPM_P2
2023/10/07 00:00:56;;;;;;;19.20;9.17;;;16.40;99.90;;;;;;5096975;28;20477;-45
2023/10/07 00:03:23;;;;;;;19.40;9.50;;;16.40;99.90;;;;;;5096552;28;20450;-46
2023/10/07 00:05:50;;;;;;;14.33;9.30;;;16.40;99.90;;;;;;5096933;28;20899;-46
2023/10/07 00:08:26;;;;;;;17.33;8.90;;;16.40;99.90;;;;;;5095716;28;20414;-46
2023/10/07 00:10:52;;;;;;;20.67;8.30;;;16.40;99.90;;;;;;5096309;28;20949;-46
2023/10/07 00:13:23;;;;;;;20.10;8.97;;;16.40;99.90;;;;;;5096379;28;20878;-46
2023/10/07 00:15:51;;;;;;;19.23;9.27;;;16.40;99.90;;;;;;5096028;28;20888;-45
2023/10/07 00:18:18;;;;;;;16.80;8.90;;;16.40;99.90;;;;;;5095912;28;20436;-46
2023/10/07 00:20:50;;;;;;;16.80;8.17;;;16.40;99.90;;;;;;5095878;28;20485;-46
2023/10/07 00:23:20;;;;;;;18.10;8.57;;;16.50;99.90;;;;;;5096104;28;20401;-46
2023/10/07 00:25:50;;;;;;;19.27;8.60;;;16.40;99.90;;;;;;5096242;28;20470;-46
2023/10/07 00:28:32;;;;;;;25.30;9.13;;;16.40;99.90;;;;;;5095628;28;20999;-46
2023/10/07 00:31:12;;;;;;;22.07;9.80;;;16.40;99.90;;;;;;5095919;28;20462;-47
2023/10/07 00:34:14;;;;;;;16.37;9.70;;;16.40;99.90;;;;;;5096037;28;20412;-46
2023/10/07 00:39:09;;;;;;;15.40;9.73;;;16.40;99.90;;;;;;5094756;28;20424;-46
2023/10/07 00:41:46;;;;;;;22.40;10.33;;;16.40;99.90;;;;;;5095783;28;20404;-46
2023/10/07 00:44:22;;;;;;;18.20;9.73;;;16.40;99.90;;;;;;5096186;28;20405;-46
2023/10/07 00:46:56;;;;;;;22.97;9.70;;;16.40;99.90;;;;;;5095869;28;20436;-45
2023/10/07 00:49:22;;;;;;;22.90;10.10;;;16.40;99.90;;;;;;5095833;28;20454;-46
2023/10/07 00:51:49;;;;;;;26.20;10.23;;;16.40;99.90;;;;;;5096115;28;20416;-45
2023/10/07 00:54:18;;;;;;;21.23;9.47;;;16.40;99.90;;;;;;5095457;28;20806;-45
2023/10/07 00:57:04;;;;;;;20.27;9.53;;;16.40;99.90;;;;;;5095490;28;20794;-45
2023/10/07 00:59:31;;;;;;;19.50;9.20;;;16.40;99.90;;;;;;5095520;28;20903;-46
2023/10/07 01:01:57;;;;;;;24.83;9.87;;;16.40;99.90;;;;;;5095523;28;20414;-46
2023/10/07 01:04:24;;;;;;;16.60;9.70;;;16.40;99.90;;;;;;5095644;28;20822;-46
2023/10/07 01:07:00;;;;;;;20.57;9.73;;;16.40;99.90;;;;;;5095067;28;20429;-46
2023/10/07 01:09:26;;;;;;;18.40;10.10;;;16.40;99.90;;;;;;5095539;28;20452;-46
2023/10/07 01:11:57;;;;;;;16.70;10.60;;;16.40;99.90;;;;;;5095281;28;20422;-46
2023/10/07 01:14:26;;;;;;;23.80;10.50;;;16.40;99.90;;;;;;5095472;28;20266;-46
2023/10/07 01:16:53;;;;;;;18.40;9.03;;;16.40;99.90;;;;;;5094504;28;20738;-45
2023/10/07 01:19:29;;;;;;;18.97;10.10;;;16.40;99.90;;;;;;5094694;28;20423;-46
2023/10/07 01:22:09;;;;;;;18.20;9.40;;;16.40;99.90;;;;;;5094695;28;20408;-45
2023/10/07 01:27:18;;;;;;;10.93;7.93;;;16.40;99.90;;;;;;5095095;28;20409;-46
2023/10/07 01:29:48;;;;;;;17.37;8.17;;;16.40;99.90;;;;;;5094506;28;20222;-45
2023/10/07 01:32:16;;;;;;;13.80;7.80;;;16.40;99.90;;;;;;5094708;28;20424;-44
2023/10/07 01:34:52;;;;;;;14.23;7.60;;;16.40;99.90;;;;;;5094749;28;20407;-45
2023/10/07 01:37:22;;;;;;;11.43;6.53;;;16.40;99.90;;;;;;5094724;28;20446;-46
2023/10/07 01:39:52;;;;;;;12.17;7.20;;;16.50;99.90;;;;;;5094718;28;20424;-44
2023/10/07 01:42:37;;;;;;;10.07;6.67;;;16.40;99.90;;;;;;5094672;28;20887;-45
2023/10/07 01:45:19;;;;;;;10.63;6.97;;;16.40;99.90;;;;;;5094493;28;20405;-46
2023/10/07 01:47:47;;;;;;;10.90;7.30;;;16.40;99.90;;;;;;5094249;28;20408;-44
2023/10/07 01:50:13;;;;;;;8.97;6.43;;;16.40;99.90;;;;;;5094287;28;20793;-46
2023/10/07 01:52:39;;;;;;;8.30;6.03;;;16.40;99.90;;;;;;5094614;28;20468;-46
2023/10/07 01:55:10;;;;;;;8.80;6.53;;;16.40;99.90;;;;;;5094310;28;20210;-46
2023/10/07 01:57:36;;;;;;;8.67;5.93;;;16.40;99.90;;;;;;5094772;28;20499;-45
2023/10/07 02:00:06;;;;;;;10.03;6.20;;;16.40;99.90;;;;;;5094569;28;20985;-46
2023/10/07 02:02:32;;;;;;;12.70;6.40;;;16.40;99.90;;;;;;5094713;28;20171;-45
2023/10/07 02:04:59;;;;;;;8.50;5.73;;;16.40;99.90;;;;;;5094598;28;20415;-45
2023/10/07 02:07:25;;;;;;;8.70;6.47;;;16.40;99.90;;;;;;5094610;28;20184;-46
2023/10/07 02:09:54;;;;;;;8.70;6.17;;;16.40;99.90;;;;;;5094226;28;20553;-46
2023/10/07 02:12:20;;;;;;;9.00;6.20;;;16.40;99.90;;;;;;5094446;28;20426;-45
2023/10/07 02:14:45;;;;;;;12.00;7.90;;;16.40;99.90;;;;;;5094135;28;20410;-45
2023/10/07 02:17:18;;;;;;;12.77;7.33;;;16.40;99.90;;;;;;5094358;28;20210;-46
2023/10/07 02:19:43;;;;;;;8.83;7.43;;;16.30;99.90;;;;;;5093993;28;20178;-45
2023/10/07 02:22:22;;;;;;;10.10;8.07;;;16.40;99.90;;;;;;5093588;28;20495;-45
2023/10/07 02:24:55;;;;;;;11.23;8.03;;;16.40;99.90;;;;;;5093102;28;20230;-45
2023/10/07 02:27:25;;;;;;;13.03;7.80;;;16.40;99.90;;;;;;5093058;28;20439;-45
2023/10/07 02:29:52;;;;;;;10.67;7.20;;;16.40;99.90;;;;;;5094320;28;20465;-45
2023/10/07 02:32:17;;;;;;;11.83;7.00;;;16.40;99.90;;;;;;5097289;28;20912;-44
2023/10/07 02:34:54;;;;;;;10.00;7.00;;;16.40;99.90;;;;;;5100684;28;20412;-45
2023/10/07 02:37:25;;;;;;;10.23;6.70;;;16.40;99.90;;;;;;5100758;28;20247;-45
2023/10/07 02:39:56;;;;;;;12.47;7.90;;;16.40;99.90;;;;;;5100529;28;20416;-46
2023/10/07 02:42:24;;;;;;;8.73;6.80;;;16.40;99.90;;;;;;5100174;28;20457;-45
2023/10/07 02:45:00;;;;;;;8.60;7.60;;;16.30;99.90;;;;;;5100425;28;20417;-46
2023/10/07 02:47:30;;;;;;;8.97;6.83;;;16.30;99.90;;;;;;5098974;28;20424;-46
2023/10/07 02:50:00;;;;;;;11.27;6.87;;;16.40;99.90;;;;;;5100777;28;20540;-45
2023/10/07 02:52:39;;;;;;;8.43;6.30;;;16.30;99.90;;;;;;5100421;28;20422;-45
2023/10/07 02:57:57;;;;;;;9.90;6.30;;;16.30;99.90;;;;;;5083478;28;20429;-45
2023/10/07 03:00:49;;;;;;;16.00;6.73;;;16.30;99.90;;;;;;5100214;28;20420;-45
2023/10/07 03:05:44;;;;;;;4.70;2.63;;;16.30;99.90;;;;;;5100242;28;20415;-45
2023/10/07 03:08:19;;;;;;;2.67;1.70;;;16.30;99.90;;;;;;5100241;28;20185;-45
2023/10/07 03:11:04;;;;;;;1.40;1.20;;;16.20;99.90;;;;;;5100377;28;20446;-46
2023/10/07 03:13:37;;;;;;;2.90;1.03;;;16.20;99.90;;;;;;5100390;28;20408;-45
2023/10/07 03:16:27;;;;;;;3.03;1.07;;;16.10;99.90;;;;;;5100419;28;20414;-45
2023/10/07 03:24:11;;;;;;;3.47;1.17;;;16.00;99.90;;;;;;5100192;28;20481;-45
2023/10/07 03:26:46;;;;;;;4.70;1.10;;;15.90;99.90;;;;;;5100360;28;20507;-45
2023/10/07 03:29:29;;;;;;;5.50;1.10;;;15.80;99.90;;;;;;5100080;28;20404;-44
2023/10/07 03:31:55;;;;;;;3.90;1.60;;;15.80;99.90;;;;;;5100196;28;20894;-45
2023/10/07 03:34:20;;;;;;;3.27;1.43;;;15.80;99.90;;;;;;5099960;28;20416;-45
2023/10/07 03:37:14;;;;;;;2.50;1.10;;;15.70;99.90;;;;;;5099912;28;20419;-45
2023/10/07 03:42:19;;;;;;;3.40;1.00;;;15.60;99.90;;;;;;5100430;28;20444;-45
2023/10/07 03:44:47;;;;;;;3.80;1.20;;;15.60;99.90;;;;;;5096264;28;20497;-46
2023/10/07 03:47:15;;;;;;;4.23;1.00;;;15.60;99.90;;;;;;5097069;28;20189;-45
2023/10/07 03:49:41;;;;;;;2.30;1.07;;;15.60;99.90;;;;;;5096732;28;20463;-45
2023/10/07 03:52:08;;;;;;;3.47;1.27;;;15.60;99.90;;;;;;5096676;28;20421;-44
2023/10/07 03:54:34;;;;;;;1.60;0.90;;;15.60;99.90;;;;;;5096637;28;20420;-45
2023/10/07 03:57:00;;;;;;;1.80;0.90;;;15.60;99.90;;;;;;5096423;28;20408;-45
2023/10/07 03:59:27;;;;;;;3.53;1.03;;;15.60;99.90;;;;;;5096859;28;20481;-45
2023/10/07 04:01:53;;;;;;;2.27;1.20;;;15.50;99.90;;;;;;5096460;28;20416;-45
2023/10/07 04:04:22;;;;;;;3.50;1.20;;;15.60;99.90;;;;;;5096310;28;20846;-45
2023/10/07 04:06:48;;;;;;;3.63;1.10;;;15.60;99.90;;;;;;5096364;28;20411;-45
2023/10/07 04:09:14;;;;;;;3.67;0.90;;;15.50;99.90;;;;;;5096107;28;20419;-46
2023/10/07 04:11:49;;;;;;;7.83;1.07;;;15.50;99.90;;;;;;5096392;28;20472;-44
2023/10/07 04:14:19;;;;;;;4.03;1.17;;;15.50;99.90;;;;;;5096356;28;20175;-45
2023/10/07 04:16:48;;;;;;;6.73;1.33;;;15.60;99.90;;;;;;5096356;28;20846;-45
2023/10/07 04:21:42;;;;;;;4.83;1.40;;;15.50;99.90;;;;;;5096283;28;20477;-44
2023/10/07 04:24:12;;;;;;;5.43;1.47;;;15.50;99.90;;;;;;5095916;28;20467;-45
2023/10/07 04:26:44;;;;;;;3.33;1.70;;;15.40;99.90;;;;;;5095955;28;20626;-45
2023/10/07 04:29:16;;;;;;;2.93;1.67;;;15.40;99.90;;;;;;5095804;28;20426;-46
2023/10/07 04:31:45;;;;;;;5.30;1.73;;;15.30;99.90;;;;;;5095871;28;20407;-47
2023/10/07 04:34:15;;;;;;;6.60;1.97;;;15.30;99.90;;;;;;5095469;28;20423;-46
2023/10/07 04:42:20;;;;;;;8.53;1.93;;;15.20;99.90;;;;;;5095847;28;20505;-46
2023/10/07 04:52:40;;;;;;;14.03;2.60;;;15.20;99.90;;;;;;5095723;28;20886;-46
2023/10/07 04:55:19;;;;;;;8.17;2.90;;;15.20;99.90;;;;;;5094392;28;20423;-45
2023/10/07 05:03:03;;;;;;;14.07;2.97;;;15.10;99.90;;;;;;5095508;28;20532;-46
2023/10/07 05:05:34;;;;;;;15.13;2.40;;;15.00;99.90;;;;;;5095370;28;20811;-46
2023/10/07 05:08:17;;;;;;;11.50;2.40;;;14.90;99.90;;;;;;5095379;28;20416;-46
2023/10/07 05:10:50;;;;;;;18.37;2.70;;;14.90;99.90;;;;;;5095307;28;20458;-45
2023/10/07 05:13:16;;;;;;;7.00;2.27;;;14.90;99.90;;;;;;5094789;28;20412;-45
2023/10/07 05:15:42;;;;;;;17.33;3.10;;;14.90;99.90;;;;;;5094531;28;20418;-45
2023/10/07 05:18:12;;;;;;;11.53;2.70;;;14.80;99.90;;;;;;5094602;28;20416;-46
2023/10/07 05:20:39;;;;;;;11.43;2.93;;;14.80;99.90;;;;;;5094953;28;20416;-46
2023/10/07 05:23:06;;;;;;;10.13;2.17;;;14.80;99.90;;;;;;5095027;28;20414;-46
2023/10/07 05:25:35;;;;;;;10.30;2.83;;;14.70;99.90;;;;;;5094253;28;20482;-46
2023/10/07 05:28:06;;;;;;;11.40;2.80;;;14.70;99.90;;;;;;5095107;28;20443;-46
2023/10/07 05:30:36;;;;;;;20.07;2.97;;;14.70;99.90;;;;;;5094827;28;20470;-45
2023/10/07 05:33:08;;;;;;;9.40;2.40;;;14.70;99.90;;;;;;5094771;28;20421;-47
2023/10/07 05:35:37;;;;;;;14.30;2.50;;;14.70;99.90;;;;;;5094899;28;20839;-46
2023/10/07 05:38:09;;;;;;;12.00;2.50;;;14.70;99.90;;;;;;5095018;28;20447;-46
2023/10/07 05:40:36;;;;;;;15.77;2.60;;;14.70;99.90;;;;;;5094661;28;20407;-46
2023/10/07 05:43:07;;;;;;;19.53;2.90;;;14.70;99.90;;;;;;5094885;28;20416;-46
2023/10/07 05:45:34;;;;;;;17.37;3.30;;;14.70;99.90;;;;;;5095061;28;20430;-46
2023/10/07 05:48:00;;;;;;;15.93;2.53;;;14.70;99.90;;;;;;5094422;28;20825;-45
2023/10/07 05:50:27;;;;;;;22.03;2.90;;;14.70;99.90;;;;;;5094472;28;20454;-46
2023/10/07 05:52:53;;;;;;;18.07;2.70;;;14.70;99.90;;;;;;5094194;28;20425;-46
2023/10/07 05:55:18;;;;;;;9.07;2.20;;;14.70;99.90;;;;;;5094033;28;20426;-45
2023/10/07 05:57:44;;;;;;;12.33;2.33;;;14.70;99.90;;;;;;5094543;28;20259;-46
2023/10/07 06:00:10;;;;;;;15.37;2.63;;;14.70;99.90;;;;;;5094370;28;20569;-45
2023/10/07 06:02:40;;;;;;;15.63;2.67;;;14.70;99.90;;;;;;5094404;28;20649;-45
2023/10/07 06:05:15;;;;;;;12.10;2.27;;;14.80;99.90;;;;;;5094207;28;20434;-46
2023/10/07 06:07:40;;;;;;;18.53;3.03;;;14.70;99.90;;;;;;5094159;28;20795;-46
2023/10/07 06:10:10;;;;;;;15.13;2.70;;;14.80;99.90;;;;;;5094317;28;20467;-46
2023/10/07 06:12:36;;;;;;;11.67;2.47;;;14.80;99.90;;;;;;5094351;28;20275;-45
2023/10/07 06:15:08;;;;;;;17.50;2.83;;;14.80;99.90;;;;;;5094128;28;20454;-46
2023/10/07 06:17:34;;;;;;;12.47;2.43;;;14.80;99.90;;;;;;5094115;28;20406;-46
2023/10/07 06:20:04;;;;;;;10.97;2.00;;;14.70;99.90;;;;;;5094259;28;20428;-45
2023/10/07 06:22:33;;;;;;;9.70;2.07;;;14.70;99.90;;;;;;5094258;28;20411;-47
2023/10/07 06:25:04;;;;;;;11.27;2.87;;;14.80;99.90;;;;;;5093668;28;20943;-46
2023/10/07 06:27:32;;;;;;;6.63;1.87;;;14.80;99.90;;;;;;5094249;28;20396;-47
2023/10/07 06:29:58;;;;;;;8.50;2.43;;;14.70;99.90;;;;;;5093557;28;20451;-45
2023/10/07 06:32:25;;;;;;;9.00;2.27;;;14.70;99.90;;;;;;5094162;28;20502;-48
2023/10/07 06:34:56;;;;;;;15.27;1.93;;;14.70;99.90;;;;;;5094119;28;20419;-46
2023/10/07 06:37:28;;;;;;;8.27;1.90;;;14.70;99.90;;;;;;5093866;28;20418;-46
2023/10/07 06:39:53;;;;;;;8.20;2.00;;;14.70;99.90;;;;;;5093987;28;20432;-47
2023/10/07 06:42:24;;;;;;;10.30;2.20;;;14.70;99.90;;;;;;5093773;28;20984;-46
2023/10/07 06:44:56;;;;;;;6.93;2.00;;;14.70;99.90;;;;;;5093975;28;20590;-46
2023/10/07 06:47:29;;;;;;;10.43;2.20;;;14.70;99.90;;;;;;5094016;28;20408;-46
2023/10/07 06:49:56;;;;;;;5.33;2.10;;;14.70;99.90;;;;;;5094098;28;20460;-46
2023/10/07 06:52:22;;;;;;;13.33;1.90;;;14.70;99.90;;;;;;5094003;28;20512;-46
2023/10/07 06:54:48;;;;;;;8.17;2.07;;;14.70;99.90;;;;;;5093332;28;20439;-46
2023/10/07 06:57:14;;;;;;;15.57;2.23;;;14.70;99.90;;;;;;5093827;28;20426;-44
2023/10/07 06:59:40;;;;;;;5.23;1.87;;;14.70;99.90;;;;;;5093805;28;20418;-46
2023/10/07 07:02:06;;;;;;;16.27;3.00;;;14.70;99.90;;;;;;5093963;28;20185;-46
2023/10/07 07:04:32;;;;;;;13.00;2.03;;;14.70;99.90;;;;;;5093859;28;20486;-46
2023/10/07 07:06:58;;;;;;;4.93;1.93;;;14.60;99.90;;;;;;5093399;28;20883;-46
2023/10/07 07:09:43;;;;;;;11.80;2.20;;;14.60;99.90;;;;;;5093587;28;20265;-46
2023/10/07 07:12:10;;;;;;;8.03;1.93;;;14.60;99.90;;;;;;5093621;28;20407;-45
2023/10/07 07:14:36;;;;;;;9.20;2.27;;;14.70;99.90;;;;;;5093467;28;20411;-46
2023/10/07 07:22:50;;;;;;;10.53;2.43;;;14.70;99.90;;;;;;5073815;28;20514;-46
2023/10/07 07:25:23;;;;;;;13.67;2.20;;;14.70;99.90;;;;;;5097023;28;20532;-46
2023/10/07 07:27:49;;;;;;;8.73;2.20;;;14.70;99.90;;;;;;5097266;28;20409;-48
2023/10/07 07:30:31;;;;;;;7.80;2.30;;;14.70;99.90;;;;;;5097074;28;20492;-45
2023/10/07 07:33:08;;;;;;;12.50;2.60;;;14.60;99.90;;;;;;5097141;28;20409;-46
2023/10/07 07:35:43;;;;;;;8.13;1.73;;;14.70;99.90;;;;;;5096905;28;20411;-46
2023/10/07 07:38:26;;;;;;;11.07;2.23;;;14.60;99.90;;;;;;5096985;28;20897;-47
2023/10/07 07:41:27;;;;;;;10.13;2.30;;;14.60;99.90;;;;;;5097408;28;20408;-45
2023/10/07 07:43:58;;;;;;;9.20;2.17;;;14.60;99.90;;;;;;5096930;28;20422;-45
2023/10/07 07:46:31;;;;;;;9.33;2.33;;;14.60;99.90;;;;;;5096721;28;20407;-46
2023/10/07 07:49:06;;;;;;;9.20;2.20;;;14.50;99.90;;;;;;5096935;28;20414;-46
2023/10/07 07:51:40;;;;;;;7.37;2.00;;;14.60;99.90;;;;;;5095798;28;20989;-45
2023/10/07 07:54:07;;;;;;;8.53;3.20;;;14.60;99.90;;;;;;5096236;28;20514;-45
2023/10/07 07:56:34;;;;;;;9.30;2.37;;;14.60;99.90;;;;;;5096410;28;20911;-45
2023/10/07 07:59:00;;;;;;;10.33;3.50;;;14.60;99.90;;;;;;5096858;28;20407;-47
2023/10/07 08:01:28;;;;;;;4.50;1.50;;;14.70;99.90;;;;;;5096382;28;20422;-45
2023/10/07 08:04:03;;;;;;;4.67;1.80;;;14.70;99.90;;;;;;5096619;28;20421;-46
2023/10/07 08:06:29;;;;;;;4.47;2.10;;;14.70;99.90;;;;;;5096248;28;20758;-45
2023/10/07 08:08:55;;;;;;;7.00;1.63;;;14.80;99.90;;;;;;5096440;28;20506;-45
2023/10/07 08:11:21;;;;;;;5.37;1.30;;;14.80;99.90;;;;;;5096119;28;20224;-45
2023/10/07 08:13:48;;;;;;;10.57;1.70;;;14.80;99.90;;;;;;5096113;28;20177;-45
2023/10/07 08:16:16;;;;;;;5.23;2.03;;;14.80;99.90;;;;;;5096141;28;20465;-46
2023/10/07 08:18:43;;;;;;;5.73;1.40;;;14.80;99.90;;;;;;5096410;28;20457;-44
2023/10/07 08:21:13;;;;;;;5.83;1.40;;;14.80;99.90;;;;;;5095981;28;20411;-46
2023/10/07 08:23:44;;;;;;;2.97;1.40;;;14.80;99.90;;;;;;5095936;28;20442;-46
2023/10/07 08:26:10;;;;;;;4.00;1.50;;;14.80;99.90;;;;;;5096236;28;20398;-45
2023/10/07 08:28:46;;;;;;;6.43;1.43;;;14.80;99.90;;;;;;5096295;28;20505;-45
2023/10/07 08:31:18;;;;;;;7.03;1.43;;;14.80;99.90;;;;;;5094994;28;20520;-46
2023/10/07 08:33:53;;;;;;;4.00;1.30;;;14.90;99.90;;;;;;5095738;28;20410;-46
2023/10/07 08:36:28;;;;;;;2.10;1.50;;;14.90;99.90;;;;;;5095817;28;20413;-46
2023/10/07 08:39:05;;;;;;;3.60;1.43;;;14.90;99.90;;;;;;5094354;28;20480;-46
2023/10/07 08:41:31;;;;;;;5.00;1.10;;;15.00;99.90;;;;;;5095775;28;20418;-46
2023/10/07 08:44:17;;;;;;;3.70;1.00;;;15.10;99.90;;;;;;5095559;28;20423;-46
2023/10/07 08:46:52;;;;;;;1.70;0.97;;;15.10;99.90;;;;;;5095437;28;20400;-46
2023/10/07 08:49:25;;;;;;;1.63;1.07;;;15.10;99.90;;;;;;5095706;28;20481;-47
2023/10/07 08:51:52;;;;;;;2.07;1.10;;;15.10;99.90;;;;;;5095884;28;20401;-45
2023/10/07 08:54:25;;;;;;;1.10;1.00;;;15.20;99.90;;;;;;5095625;28;20420;-46
2023/10/07 08:56:57;;;;;;;3.73;1.23;;;15.20;99.90;;;;;;5095810;28;20621;-46
2023/10/07 08:59:30;;;;;;;2.60;1.53;;;15.20;99.90;;;;;;5095515;28;20472;-45
2023/10/07 09:02:12;;;;;;;2.13;1.30;;;15.20;99.90;;;;;;5095757;28;20463;-47
2023/10/07 09:04:40;;;;;;;2.93;1.07;;;15.10;99.90;;;;;;5095093;28;20922;-45
2023/10/07 09:07:09;;;;;;;3.00;1.13;;;15.10;99.90;;;;;;5094441;28;20410;-46
2023/10/07 09:09:39;;;;;;;2.27;1.13;;;15.10;99.90;;;;;;5094812;28;20891;-46
2023/10/07 09:12:15;;;;;;;4.20;1.20;;;15.10;99.90;;;;;;5094964;28;20444;-45
2023/10/07 09:17:17;;;;;;;3.13;1.03;;;15.00;99.90;;;;;;5095163;28;20414;-46
2023/10/07 09:19:48;;;;;;;4.10;1.20;;;15.00;99.90;;;;;;5093514;28;20431;-44
2023/10/07 09:22:14;;;;;;;5.77;1.30;;;15.00;99.90;;;;;;5094700;28;20408;-46
2023/10/07 09:24:42;;;;;;;2.67;1.40;;;15.00;99.90;;;;;;5094744;28;20469;-46
2023/10/07 09:27:12;;;;;;;2.90;1.33;;;15.00;99.90;;;;;;5094868;28;20418;-47
2023/10/07 09:29:39;;;;;;;5.70;1.37;;;15.10;99.90;;;;;;5093317;28;20467;-45
2023/10/07 09:32:05;;;;;;;1.90;1.37;;;15.10;99.90;;;;;;5094492;28;20758;-45
2023/10/07 09:34:44;;;;;;;3.00;0.90;;;15.20;99.90;;;;;;5094410;28;20412;-46
2023/10/07 09:37:13;;;;;;;2.70;0.90;;;15.10;99.90;;;;;;5094633;28;20476;-45
2023/10/07 09:39:44;;;;;;;1.30;0.80;;;15.10;99.90;;;;;;5094562;28;20424;-45
2023/10/07 09:42:56;;;;;;;6.50;1.20;;;15.10;99.90;;;;;;5094222;28;20487;-46
2023/10/07 09:45:20;;;;;;;19.30;11.57;;;15.10;99.90;;;;;;5091730;28;20460;-46
2023/10/07 09:47:49;;;;;;;2.07;1.03;;;15.10;99.90;;;;;;5094264;28;20418;-45
2023/10/07 09:52:57;;;;;;;3.83;1.20;;;15.00;99.90;;;;;;5094474;28;20173;-46
2023/10/07 09:55:47;;;;;;;3.37;1.30;;;15.10;99.90;;;;;;5094440;28;20411;-45
2023/10/07 09:58:17;;;;;;;2.10;1.13;;;15.10;99.90;;;;;;5093884;28;20743;-46
2023/10/07 10:01:37;;;;;;;1.57;1.00;;;15.10;99.90;;;;;;5094398;28;20451;-45
2023/10/07 10:04:28;;;;;;;3.77;1.40;;;15.10;99.90;;;;;;5074266;28;20441;-46
2023/10/07 10:07:10;;;;;;;2.20;1.20;;;15.10;99.90;;;;;;5093959;28;20416;-46
2023/10/07 10:09:54;;;;;;;2.43;1.20;;;15.20;99.90;;;;;;5094051;28;20476;-45
2023/10/07 10:12:29;;;;;;;2.87;1.60;;;15.20;99.90;;;;;;5093591;28;20978;-45
2023/10/07 10:15:50;;;;;;;2.60;1.30;;;15.20;99.90;;;;;;5093972;28;20423;-46
2023/10/07 10:17:48;;;;;;;1.40;1.20;;;15.20;99.90;;;;;;5093609;28;20444;-45
2023/10/07 10:20:18;;;;;;;2.70;1.40;;;15.20;99.90;;;;;;5093608;28;20767;-46
2023/10/07 10:22:51;;;;;;;1.63;1.40;;;15.10;99.90;;;;;;5094015;28;20456;-46
2023/10/07 10:25:36;;;;;;;1.40;1.23;;;15.10;99.90;;;;;;5093707;28;20472;-46
2023/10/07 10:28:03;;;;;;;2.37;1.40;;;15.10;99.90;;;;;;5093919;28;20409;-46
2023/10/07 10:30:29;;;;;;;1.37;1.27;;;15.10;99.90;;;;;;5092497;28;20822;-46
2023/10/07 10:33:00;;;;;;;3.13;1.60;;;15.10;99.90;;;;;;5093592;28;20434;-46
2023/10/07 10:35:29;;;;;;;1.90;1.50;;;15.20;99.90;;;;;;5093782;28;20752;-46
2023/10/07 10:37:59;;;;;;;2.27;1.70;;;15.30;99.90;;;;;;5093727;28;20420;-46
2023/10/07 10:40:31;;;;;;;3.50;2.97;;;15.40;99.90;;;;;;5093647;28;20409;-45
2023/10/07 10:42:57;;;;;;;14.57;7.80;;;15.50;99.90;;;;;;5093856;28;20465;-46
2023/10/07 10:45:29;;;;;;;13.10;9.67;;;15.50;99.90;;;;;;5093795;28;20911;-46
2023/10/07 10:47:58;;;;;;;5.03;4.13;;;15.60;99.90;;;;;;5093391;28;20175;-46
2023/10/07 10:50:24;;;;;;;2.60;1.70;;;15.60;99.90;;;;;;5093191;28;20467;-46
2023/10/07 10:52:54;;;;;;;4.47;1.40;;;15.50;99.90;;;;;;5094504;28;20954;-46
2023/10/07 10:55:23;;;;;;;2.37;1.40;;;15.40;99.90;;;;;;5097646;28;20417;-45
2023/10/07 10:57:51;;;;;;;1.70;1.20;;;15.40;99.90;;;;;;5097635;28;20422;-45
2023/10/07 11:00:19;;;;;;;1.63;1.40;;;15.40;99.90;;;;;;5097560;28;20428;-45
2023/10/07 11:02:55;;;;;;;1.73;1.30;;;15.40;99.90;;;;;;5097616;28;20895;-46
2023/10/07 11:05:21;;;;;;;1.73;1.40;;;15.30;99.90;;;;;;5097258;28;20486;-45
2023/10/07 11:07:50;;;;;;;1.20;1.10;;;15.20;99.90;;;;;;5097551;28;20420;-46
2023/10/07 11:10:23;;;;;;;6.87;1.77;;;15.20;99.90;;;;;;5097304;28;20555;-46
2023/10/07 11:12:52;;;;;;;2.17;1.63;;;15.10;99.90;;;;;;5097755;28;20446;-46
2023/10/07 11:15:29;;;;;;;2.63;1.67;;;15.10;99.90;;;;;;5097185;28;20430;-47
2023/10/07 11:18:11;;;;;;;2.43;1.47;;;15.10;99.90;;;;;;5097335;28;20761;-47
2023/10/07 11:20:40;;;;;;;1.47;1.20;;;15.10;99.90;;;;;;5097483;28;20406;-46
2023/10/07 11:23:08;;;;;;;4.57;1.10;;;15.10;99.90;;;;;;5097234;28;20420;-46
2023/10/07 11:25:35;;;;;;;2.30;1.00;;;15.20;99.90;;;;;;5096737;28;20478;-45
2023/10/07 11:28:09;;;;;;;5.53;1.43;;;15.20;99.90;;;;;;5097298;28;20757;-46
2023/10/07 11:30:48;;;;;;;1.40;1.30;;;15.30;99.90;;;;;;5096665;28;20978;-46
2023/10/07 11:33:17;;;;;;;1.20;1.10;;;15.20;99.90;;;;;;5096789;28;20422;-46
2023/10/07 11:35:46;;;;;;;1.20;1.10;;;15.30;99.90;;;;;;5096786;28;20899;-46
2023/10/07 11:38:13;;;;;;;1.40;1.13;;;15.30;99.90;;;;;;5097042;28;20820;-46
2023/10/07 11:40:39;;;;;;;1.33;1.20;;;15.20;99.90;;;;;;5096454;28;20463;-45
2023/10/07 11:43:08;;;;;;;1.10;1.00;;;15.10;99.90;;;;;;5096884;28;20911;-46
2023/10/07 11:45:36;;;;;;;2.00;1.10;;;15.10;99.90;;;;;;5096672;28;20435;-46
2023/10/07 11:48:08;;;;;;;1.70;1.03;;;15.00;99.90;;;;;;5096636;28;20494;-46
2023/10/07 11:50:37;;;;;;;1.63;1.00;;;15.00;99.90;;;;;;5096439;28;20459;-46
2023/10/07 11:53:03;;;;;;;1.87;1.10;;;14.90;99.90;;;;;;5096449;28;20900;-46
2023/10/07 11:55:32;;;;;;;1.90;1.33;;;14.80;99.90;;;;;;5096620;28;20404;-46
2023/10/07 11:58:02;;;;;;;3.70;1.00;;;14.80;99.90;;;;;;5096667;28;20424;-46
2023/10/07 12:00:37;;;;;;;1.40;1.30;;;14.80;99.90;;;;;;5096869;28;20414;-45
2023/10/07 12:03:06;;;;;;;1.43;1.00;;;14.90;99.90;;;;;;5096448;28;20430;-46
2023/10/07 12:05:32;;;;;;;1.70;1.07;;;14.80;99.90;;;;;;5096076;28;20422;-46
2023/10/07 12:08:02;;;;;;;2.10;1.10;;;14.80;99.90;;;;;;5096397;28;20888;-46
2023/10/07 12:10:29;;;;;;;1.43;1.00;;;14.70;99.90;;;;;;5096297;28;20654;-46
2023/10/07 12:12:55;;;;;;;2.07;1.23;;;14.70;99.90;;;;;;5096289;28;20435;-46
2023/10/07 12:15:21;;;;;;;1.93;1.30;;;14.80;99.90;;;;;;5095976;28;20888;-46
2023/10/07 12:17:50;;;;;;;1.20;1.10;;;14.90;99.90;;;;;;5095969;28;20181;-46
2023/10/07 12:20:15;;;;;;;1.23;1.13;;;14.90;99.90;;;;;;5096193;28;20432;-46
2023/10/07 12:22:44;;;;;;;2.97;1.20;;;15.00;99.90;;;;;;5095957;28;20420;-46
2023/10/07 12:25:16;;;;;;;1.23;1.13;;;14.90;99.90;;;;;;5095552;28;20295;-46
2023/10/07 12:27:45;;;;;;;1.20;1.10;;;14.90;99.90;;;;;;5095807;28;20404;-46
2023/10/07 12:30:12;;;;;;;1.20;1.10;;;15.00;99.90;;;;;;5095662;28;20478;-46
2023/10/07 12:32:39;;;;;;;2.10;1.50;;;15.00;99.90;;;;;;5095800;28;20415;-45
2023/10/07 12:35:05;;;;;;;2.17;1.40;;;15.00;99.90;;;;;;5095921;28;20419;-45
2023/10/07 12:37:31;;;;;;;0.90;0.90;;;15.00;99.90;;;;;;5095403;28;20977;-47
2023/10/07 12:39:57;;;;;;;1.03;1.00;;;15.00;99.90;;;;;;5095592;28;20427;-46
2023/10/07 12:42:25;;;;;;;1.40;1.30;;;15.10;99.90;;;;;;5095543;28;20648;-45
2023/10/07 12:44:51;;;;;;;1.33;1.20;;;15.10;99.90;;;;;;5095409;28;20661;-46
2023/10/07 12:47:17;;;;;;;2.00;1.20;;;15.00;99.90;;;;;;5095313;28;20431;-46
2023/10/07 12:49:45;;;;;;;1.50;1.40;;;15.00;99.90;;;;;;5095154;28;20178;-46
2023/10/07 12:52:11;;;;;;;3.50;1.07;;;14.90;99.90;;;;;;5095111;28;20276;-46
2023/10/07 12:54:37;;;;;;;1.33;1.23;;;15.00;99.90;;;;;;5094680;28;20489;-47
2023/10/07 12:57:03;;;;;;;1.87;1.20;;;14.90;99.90;;;;;;5095231;28;20411;-46
2023/10/07 12:59:35;;;;;;;1.30;1.20;;;14.90;99.90;;;;;;5093951;28;20418;-47
2023/10/07 13:02:03;;;;;;;1.50;1.23;;;14.80;99.90;;;;;;5095595;28;20201;-46
2023/10/07 13:04:34;;;;;;;1.67;1.30;;;14.70;99.90;;;;;;5095201;28;20501;-45
2023/10/07 13:07:09;;;;;;;2.10;1.20;;;14.70;99.90;;;;;;5095176;28;20489;-46
2023/10/07 13:09:35;;;;;;;1.57;1.20;;;14.80;99.90;;;;;;5095198;28;20417;-46
2023/10/07 13:12:11;;;;;;;1.70;1.20;;;14.80;99.90;;;;;;5094664;28;20936;-46
2023/10/07 13:14:40;;;;;;;3.20;1.20;;;14.70;99.90;;;;;;5094868;28;20169;-46
2023/10/07 13:17:07;;;;;;;1.30;1.00;;;14.70;99.90;;;;;;5094022;28;20421;-46
2023/10/07 13:19:36;;;;;;;3.20;1.20;;;14.60;99.90;;;;;;5094635;28;20461;-46
2023/10/07 13:22:05;;;;;;;1.90;1.20;;;14.50;99.90;;;;;;5094738;28;20888;-46
2023/10/07 13:24:34;;;;;;;1.17;1.00;;;14.60;99.90;;;;;;5094548;28;20473;-46
2023/10/07 13:27:04;;;;;;;0.80;0.80;;;14.70;99.90;;;;;;5094503;28;20419;-45
2023/10/07 13:29:34;;;;;;;0.97;0.90;;;14.80;99.90;;;;;;5094941;28;20951;-46
2023/10/07 13:32:03;;;;;;;0.90;0.90;;;14.70;99.90;;;;;;5094400;28;20407;-47
2023/10/07 13:34:29;;;;;;;1.20;1.03;;;14.80;99.90;;;;;;5094268;28;20497;-46
2023/10/07 13:36:55;;;;;;;0.80;0.73;;;14.80;99.90;;;;;;5094436;28;20506;-47
2023/10/07 13:39:24;;;;;;;3.63;1.00;;;14.70;99.90;;;;;;5094526;28;20495;-46
2023/10/07 13:41:52;;;;;;;2.60;1.00;;;14.80;99.90;;;;;;5093148;28;20231;-46
2023/10/07 13:44:18;;;;;;;0.80;0.80;;;14.80;99.90;;;;;;5094537;28;20416;-47
2023/10/07 13:46:45;;;;;;;1.73;1.00;;;14.80;99.90;;;;;;5094160;28;20530;-46
2023/10/07 13:49:11;;;;;;;1.43;0.90;;;14.70;99.90;;;;;;5094356;28;20514;-47
2023/10/07 13:51:43;;;;;;;0.80;0.80;;;14.60;99.90;;;;;;5094003;28;20467;-46